createdAt,value
2019-01-22T00:01:26.541Z,65.4
2019-01-22T00:11:29.222Z,63.3
2019-01-22T00:21:26.677Z,62.4
2019-01-22T00:31:26.320Z,65.0
2019-01-22T00:41:26.731Z,64.9
2019-01-22T00:51:26.805Z,64.6
2019-01-22T01:01:26.646Z,65.3
2019-01-22T01:11:26.788Z,64.0
2019-01-22T01:21:26.130Z,66.7
2019-01-22T01:31:25.888Z,65.6
2019-01-22T01:41:26.835Z,66.9
2019-01-22T01:51:27.100Z,68.4
2019-01-22T02:01:25.719Z,69.1
2019-01-22T02:11:26.740Z,76.8
2019-01-22T02:21:25.643Z,74.5
2019-01-22T02:31:26.577Z,73.0
2019-01-22T02:41:26.364Z,72.9
2019-01-22T02:51:26.468Z,67.0
2019-01-22T03:01:26.094Z,60.8
2019-01-22T03:11:27.204Z,71.3
2019-01-22T03:21:26.616Z,64.1
2019-01-22T03:31:26.445Z,62.0
2019-01-22T03:41:26.468Z,60.8
2019-01-22T03:51:26.619Z,64.8
2019-01-22T04:01:27.377Z,65.1
2019-01-22T04:11:26.865Z,62.9
2019-01-22T04:21:25.770Z,61.9
2019-01-22T04:31:26.461Z,63.1
2019-01-22T04:41:27.266Z,61.0
2019-01-22T04:51:27.064Z,56.9
2019-01-22T05:01:26.287Z,54.9
2019-01-22T05:11:26.579Z,52.3
2019-01-22T05:21:26.943Z,54.9
2019-01-22T05:31:27.690Z,54.6
2019-01-22T05:41:28.126Z,58.1
2019-01-22T05:51:28.329Z,58.6
2019-01-22T06:01:27.078Z,58.1
2019-01-22T06:11:26.094Z,58.8
2019-01-22T06:21:27.404Z,53.9
2019-01-22T06:31:25.908Z,53.5
2019-01-22T06:41:25.769Z,53.1
2019-01-22T06:51:28.330Z,54.2
2019-01-22T07:01:26.629Z,51.9
2019-01-22T07:11:27.471Z,52.1
2019-01-22T07:21:26.637Z,48.7
2019-01-22T07:31:27.703Z,54.0
2019-01-22T07:41:26.481Z,47.8
2019-01-22T07:51:26.507Z,50.8
2019-01-22T08:01:27.036Z,49.5
2019-01-22T08:11:25.731Z,48.5
2019-01-22T08:21:26.643Z,49.1
2019-01-22T08:31:28.768Z,46.1
2019-01-22T08:41:27.136Z,47.3
2019-01-22T08:51:26.060Z,47.0
2019-01-22T09:01:27.592Z,41.4
2019-01-22T09:11:26.957Z,46.1
2019-01-22T09:21:25.754Z,50.0
2019-01-22T09:31:27.593Z,47.6
2019-01-22T09:41:27.124Z,48.4
2019-01-22T09:51:26.873Z,46.3
2019-01-22T10:01:27.391Z,48.4
2019-01-22T10:11:26.341Z,48.8
2019-01-22T10:21:26.191Z,46.4
2019-01-22T10:31:26.353Z,44.4
2019-01-22T10:41:26.741Z,47.7
2019-01-22T10:51:26.280Z,48.1
2019-01-22T11:01:27.090Z,48.4
2019-01-22T11:11:26.190Z,50.2
2019-01-22T11:21:26.709Z,50.1
2019-01-22T11:31:26.932Z,53.0
2019-01-22T11:41:26.609Z,57.8
2019-01-22T11:51:26.845Z,53.2
2019-01-22T12:01:26.568Z,52.6
2019-01-22T12:11:29.543Z,56.0
2019-01-22T12:21:26.465Z,57.8
2019-01-22T12:31:26.105Z,60.7
2019-01-22T12:41:26.036Z,54.7
2019-01-22T12:51:26.628Z,47.5
2019-01-22T13:01:26.148Z,48.4
2019-01-22T13:11:26.042Z,48.7
2019-01-22T13:21:26.827Z,48.2
2019-01-22T13:31:26.495Z,49.6
2019-01-22T13:41:27.298Z,46.4
2019-01-22T13:51:26.493Z,47.6
2019-01-22T14:01:27.325Z,47.6
2019-01-22T14:11:27.667Z,47.0
2019-01-22T14:21:26.601Z,46.7
2019-01-22T14:31:26.942Z,49.2
2019-01-22T14:41:26.549Z,47.7
2019-01-22T14:51:26.063Z,43.5
2019-01-22T15:01:27.691Z,45.9
2019-01-22T15:11:26.227Z,43.9
2019-01-22T15:21:26.659Z,40.3
2019-01-22T15:31:26.180Z,41.6
2019-01-22T15:41:25.825Z,41.0
2019-01-22T15:51:25.974Z,42.8
2019-01-22T16:01:27.356Z,40.7
2019-01-22T16:11:26.134Z,42.3
2019-01-22T16:21:25.953Z,42.6
2019-01-22T16:31:26.867Z,49.0
2019-01-22T16:41:26.688Z,45.4
2019-01-22T16:51:26.815Z,45.1
2019-01-22T17:01:32.334Z,49.1
2019-01-22T17:11:27.407Z,45.2
2019-01-22T17:21:26.233Z,42.5
2019-01-22T17:31:25.921Z,45.9
2019-01-22T17:41:26.765Z,45.1
2019-01-22T17:51:27.673Z,48.4
2019-01-22T18:01:26.411Z,52.9
2019-01-22T18:11:26.258Z,49.0
2019-01-22T18:21:26.492Z,50.4
2019-01-22T18:31:26.490Z,46.0
2019-01-22T18:41:26.183Z,44.5
2019-01-22T18:51:25.732Z,43.2
2019-01-22T19:01:26.865Z,39.5
2019-01-22T19:11:26.616Z,37.3
2019-01-22T19:21:27.994Z,39.6
2019-01-22T19:31:27.441Z,39.3
2019-01-22T19:41:26.081Z,42.8
2019-01-22T19:51:26.225Z,34.9
2019-01-22T20:01:25.952Z,32.9
2019-01-22T20:11:29.345Z,34.5
2019-01-22T20:21:26.427Z,38.7
2019-01-22T20:31:27.111Z,35.4
2019-01-22T20:41:26.307Z,37.7
2019-01-22T20:51:25.941Z,36.3
2019-01-22T21:01:27.085Z,40.5
2019-01-22T21:11:25.754Z,36.9
2019-01-22T21:21:26.580Z,34.7
2019-01-22T21:31:26.497Z,35.0
2019-01-22T21:41:26.177Z,34.5
2019-01-22T21:51:25.742Z,34.1
2019-01-22T22:01:26.955Z,33.4
2019-01-22T22:11:26.587Z,34.2
2019-01-22T22:21:26.660Z,34.4
2019-01-22T22:31:26.775Z,27.0
2019-01-22T22:41:26.810Z,28.9
2019-01-22T22:51:27.851Z,30.0
2019-01-22T23:01:26.850Z,27.2
2019-01-22T23:11:28.077Z,29.8
2019-01-22T23:21:26.915Z,29.2
2019-01-22T23:31:26.761Z,28.9
2019-01-22T23:41:26.702Z,28.5
2019-01-22T23:51:26.272Z,27.1
